sensor_id;sensor_type;location;lat;lon;timestamp;P1;durP1;ratioP1;P2;durP2;ratioP2
12800;SDS011;6464;42.494;27.470;2023-09-19T04:19:17;1.80;;;1.80;;
12800;SDS011;6464;42.494;27.470;2023-09-19T04:22:07;1.70;;;1.70;;
12800;SDS011;6464;42.494;27.470;2023-09-19T04:35:51;1.80;;;1.80;;
12800;SDS011;6464;42.494;27.470;2023-09-19T04:38:32;1.70;;;1.70;;
12800;SDS011;6464;42.494;27.470;2023-09-19T04:43:58;1.70;;;1.70;;
12800;SDS011;6464;42.494;27.470;2023-09-19T04:47:03;1.80;;;1.80;;
12800;SDS011;6464;42.494;27.470;2023-09-19T04:52:15;2.30;;;2.30;;
12800;SDS011;6464;42.494;27.470;2023-09-19T04:54:44;2.40;;;2.40;;
12800;SDS011;6464;42.494;27.470;2023-09-19T04:57:19;2.40;;;2.40;;
12800;SDS011;6464;42.494;27.470;2023-09-19T05:05:40;1.90;;;1.90;;
12800;SDS011;6464;42.494;27.470;2023-09-19T05:14:34;2.83;;;2.83;;
12800;SDS011;6464;42.494;27.470;2023-09-19T05:17:40;3.30;;;3.30;;
12800;SDS011;6464;42.494;27.470;2023-09-19T05:22:49;3.60;;;3.60;;
12800;SDS011;6464;42.494;27.470;2023-09-19T05:25:33;3.70;;;3.70;;
12800;SDS011;6464;42.494;27.470;2023-09-19T05:28:04;3.30;;;3.30;;
12800;SDS011;6464;42.494;27.470;2023-09-19T05:36:24;4.40;;;4.30;;
12800;SDS011;6464;42.494;27.470;2023-09-19T05:38:51;4.70;;;4.60;;
12800;SDS011;6464;42.494;27.470;2023-09-19T05:41:21;4.82;;;4.72;;
12800;SDS011;6464;42.494;27.470;2023-09-19T05:46:42;4.65;;;4.55;;
12800;SDS011;6464;42.494;27.470;2023-09-19T05:49:10;4.80;;;4.70;;
12800;SDS011;6464;42.494;27.470;2023-09-19T05:57:30;5.10;;;5.00;;
12800;SDS011;6464;42.494;27.470;2023-09-19T06:00:42;5.10;;;5.00;;
12800;SDS011;6464;42.494;27.470;2023-09-19T06:03:09;5.25;;;5.15;;
12800;SDS011;6464;42.494;27.470;2023-09-19T06:05:38;5.45;;;5.35;;
12800;SDS011;6464;42.494;27.470;2023-09-19T06:08:06;5.30;;;5.20;;
12800;SDS011;6464;42.494;27.470;2023-09-19T06:10:36;5.20;;;5.10;;
12800;SDS011;6464;42.494;27.470;2023-09-19T06:13:07;5.13;;;5.03;;
12800;SDS011;6464;42.494;27.470;2023-09-19T06:15:38;5.10;;;5.00;;
12800;SDS011;6464;42.494;27.470;2023-09-19T06:18:09;5.10;;;5.00;;
12800;SDS011;6464;42.494;27.470;2023-09-19T06:20:44;5.13;;;5.03;;
12800;SDS011;6464;42.494;27.470;2023-09-19T06:23:27;5.20;;;5.10;;
12800;SDS011;6464;42.494;27.470;2023-09-19T06:25:58;5.00;;;4.90;;
12800;SDS011;6464;42.494;27.470;2023-09-19T06:28:30;5.50;;;5.40;;
12800;SDS011;6464;42.494;27.470;2023-09-19T06:31:02;5.60;;;5.50;;
12800;SDS011;6464;42.494;27.470;2023-09-19T06:33:33;5.80;;;5.70;;
12800;SDS011;6464;42.494;27.470;2023-09-19T06:36:00;5.80;;;5.70;;
12800;SDS011;6464;42.494;27.470;2023-09-19T06:38:30;5.90;;;5.80;;
12800;SDS011;6464;42.494;27.470;2023-09-19T06:40:59;5.80;;;5.70;;
12800;SDS011;6464;42.494;27.470;2023-09-19T06:43:31;5.50;;;5.40;;
12800;SDS011;6464;42.494;27.470;2023-09-19T06:45:59;5.80;;;5.70;;
12800;SDS011;6464;42.494;27.470;2023-09-19T06:48:26;6.20;;;6.00;;
12800;SDS011;6464;42.494;27.470;2023-09-19T06:50:54;6.40;;;6.20;;
12800;SDS011;6464;42.494;27.470;2023-09-19T06:53:21;6.30;;;6.10;;
12800;SDS011;6464;42.494;27.470;2023-09-19T06:55:49;6.50;;;6.30;;
12800;SDS011;6464;42.494;27.470;2023-09-19T06:58:16;6.55;;;6.35;;
12800;SDS011;6464;42.494;27.470;2023-09-19T07:00:44;6.38;;;6.18;;
12800;SDS011;6464;42.494;27.470;2023-09-19T07:03:13;6.28;;;6.07;;
12800;SDS011;6464;42.494;27.470;2023-09-19T07:05:41;8.00;;;7.75;;
12800;SDS011;6464;42.494;27.470;2023-09-19T07:08:09;8.30;;;8.00;;
12800;SDS011;6464;42.494;27.470;2023-09-19T07:10:37;7.65;;;7.45;;
12800;SDS011;6464;42.494;27.470;2023-09-19T07:13:06;6.70;;;6.50;;
12800;SDS011;6464;42.494;27.470;2023-09-19T07:15:35;6.80;;;6.60;;
12800;SDS011;6464;42.494;27.470;2023-09-19T07:18:06;7.75;;;7.55;;
12800;SDS011;6464;42.494;27.470;2023-09-19T07:20:36;7.50;;;7.30;;
12800;SDS011;6464;42.494;27.470;2023-09-19T07:23:03;7.80;;;7.60;;
12800;SDS011;6464;42.494;27.470;2023-09-19T07:25:31;6.80;;;6.60;;
12800;SDS011;6464;42.494;27.470;2023-09-19T07:27:58;7.28;;;7.07;;
12800;SDS011;6464;42.494;27.470;2023-09-19T07:30:25;6.90;;;6.70;;
12800;SDS011;6464;42.494;27.470;2023-09-19T07:32:53;7.00;;;6.80;;
12800;SDS011;6464;42.494;27.470;2023-09-19T07:35:23;7.20;;;7.00;;
12800;SDS011;6464;42.494;27.470;2023-09-19T07:37:50;7.10;;;6.90;;
12800;SDS011;6464;42.494;27.470;2023-09-19T07:40:17;7.38;;;7.18;;
12800;SDS011;6464;42.494;27.470;2023-09-19T07:42:45;7.35;;;7.15;;
12800;SDS011;6464;42.494;27.470;2023-09-19T07:45:12;7.40;;;7.20;;
12800;SDS011;6464;42.494;27.470;2023-09-19T07:47:43;7.35;;;7.15;;
12800;SDS011;6464;42.494;27.470;2023-09-19T07:50:11;7.35;;;7.15;;
12800;SDS011;6464;42.494;27.470;2023-09-19T07:52:39;7.30;;;7.10;;
12800;SDS011;6464;42.494;27.470;2023-09-19T07:55:06;7.50;;;7.30;;
12800;SDS011;6464;42.494;27.470;2023-09-19T07:57:34;8.77;;;8.48;;
12800;SDS011;6464;42.494;27.470;2023-09-19T08:00:01;9.32;;;9.02;;
12800;SDS011;6464;42.494;27.470;2023-09-19T08:02:30;7.95;;;7.75;;
12800;SDS011;6464;42.494;27.470;2023-09-19T08:05:00;7.70;;;7.50;;
12800;SDS011;6464;42.494;27.470;2023-09-19T08:07:31;7.78;;;7.57;;
12800;SDS011;6464;42.494;27.470;2023-09-19T08:09:59;7.85;;;7.65;;
12800;SDS011;6464;42.494;27.470;2023-09-19T08:12:26;8.00;;;7.80;;
12800;SDS011;6464;42.494;27.470;2023-09-19T08:14:53;7.90;;;7.70;;
12800;SDS011;6464;42.494;27.470;2023-09-19T08:17:20;7.90;;;7.70;;
12800;SDS011;6464;42.494;27.470;2023-09-19T08:19:48;8.00;;;7.80;;
12800;SDS011;6464;42.494;27.470;2023-09-19T08:22:18;7.70;;;7.50;;
12800;SDS011;6464;42.494;27.470;2023-09-19T08:24:45;7.70;;;7.50;;
12800;SDS011;6464;42.494;27.470;2023-09-19T08:27:14;7.45;;;7.25;;
12800;SDS011;6464;42.494;27.470;2023-09-19T08:29:43;7.20;;;7.00;;
12800;SDS011;6464;42.494;27.470;2023-09-19T08:32:11;7.00;;;6.80;;
12800;SDS011;6464;42.494;27.470;2023-09-19T08:34:38;6.90;;;6.70;;
12800;SDS011;6464;42.494;27.470;2023-09-19T08:37:05;7.10;;;6.90;;
12800;SDS011;6464;42.494;27.470;2023-09-19T08:39:32;7.05;;;6.85;;
12800;SDS011;6464;42.494;27.470;2023-09-19T08:42:02;7.30;;;7.10;;
12800;SDS011;6464;42.494;27.470;2023-09-19T08:44:31;7.30;;;7.10;;
12800;SDS011;6464;42.494;27.470;2023-09-19T08:47:08;7.20;;;7.00;;
12800;SDS011;6464;42.494;27.470;2023-09-19T08:49:39;7.32;;;7.13;;
12800;SDS011;6464;42.494;27.470;2023-09-19T08:52:16;7.50;;;7.30;;
12800;SDS011;6464;42.494;27.470;2023-09-19T08:54:48;7.43;;;7.22;;
12800;SDS011;6464;42.494;27.470;2023-09-19T08:57:19;7.63;;;7.43;;
12800;SDS011;6464;42.494;27.470;2023-09-19T08:59:48;7.60;;;7.40;;
12800;SDS011;6464;42.494;27.470;2023-09-19T09:02:16;7.13;;;6.93;;
12800;SDS011;6464;42.494;27.470;2023-09-19T09:04:45;7.55;;;7.35;;
12800;SDS011;6464;42.494;27.470;2023-09-19T09:07:13;7.88;;;7.68;;
12800;SDS011;6464;42.494;27.470;2023-09-19T09:09:41;8.10;;;7.90;;
12800;SDS011;6464;42.494;27.470;2023-09-19T09:12:10;7.90;;;7.70;;
12800;SDS011;6464;42.494;27.470;2023-09-19T09:14:39;8.40;;;8.10;;
12800;SDS011;6464;42.494;27.470;2023-09-19T09:17:08;7.72;;;7.53;;
12800;SDS011;6464;42.494;27.470;2023-09-19T09:19:34;7.35;;;7.15;;
12800;SDS011;6464;42.494;27.470;2023-09-19T09:22:08;7.38;;;7.18;;
12800;SDS011;6464;42.494;27.470;2023-09-19T09:24:36;7.20;;;7.00;;
12800;SDS011;6464;42.494;27.470;2023-09-19T09:27:05;7.00;;;6.80;;
12800;SDS011;6464;42.494;27.470;2023-09-19T09:29:44;7.40;;;7.20;;
12800;SDS011;6464;42.494;27.470;2023-09-19T09:32:23;7.53;;;7.32;;
12800;SDS011;6464;42.494;27.470;2023-09-19T09:34:51;8.00;;;7.80;;
12800;SDS011;6464;42.494;27.470;2023-09-19T09:37:20;7.85;;;7.65;;
12800;SDS011;6464;42.494;27.470;2023-09-19T09:39:51;7.82;;;7.63;;
12800;SDS011;6464;42.494;27.470;2023-09-19T09:42:30;7.63;;;7.43;;
12800;SDS011;6464;42.494;27.470;2023-09-19T09:45:12;7.90;;;7.70;;
12800;SDS011;6464;42.494;27.470;2023-09-19T09:47:45;8.13;;;7.93;;
12800;SDS011;6464;42.494;27.470;2023-09-19T09:50:29;8.05;;;7.85;;
12800;SDS011;6464;42.494;27.470;2023-09-19T09:53:21;7.75;;;7.55;;
12800;SDS011;6464;42.494;27.470;2023-09-19T09:56:02;7.80;;;7.60;;
12800;SDS011;6464;42.494;27.470;2023-09-19T09:58:32;7.90;;;7.70;;
12800;SDS011;6464;42.494;27.470;2023-09-19T10:01:00;7.82;;;7.63;;
12800;SDS011;6464;42.494;27.470;2023-09-19T10:03:35;8.10;;;7.90;;
12800;SDS011;6464;42.494;27.470;2023-09-19T10:06:06;8.48;;;8.18;;
12800;SDS011;6464;42.494;27.470;2023-09-19T10:08:59;9.35;;;9.05;;
12800;SDS011;6464;42.494;27.470;2023-09-19T10:11:32;8.00;;;7.80;;
12800;SDS011;6464;42.494;27.470;2023-09-19T10:14:04;8.30;;;8.00;;
12800;SDS011;6464;42.494;27.470;2023-09-19T10:16:35;8.05;;;7.85;;
12800;SDS011;6464;42.494;27.470;2023-09-19T10:19:08;7.95;;;7.75;;
12800;SDS011;6464;42.494;27.470;2023-09-19T10:21:36;7.85;;;7.65;;
12800;SDS011;6464;42.494;27.470;2023-09-19T10:24:05;8.10;;;7.90;;
12800;SDS011;6464;42.494;27.470;2023-09-19T10:26:34;8.90;;;8.60;;
12800;SDS011;6464;42.494;27.470;2023-09-19T10:29:04;7.22;;;7.03;;
12800;SDS011;6464;42.494;27.470;2023-09-19T10:31:35;7.30;;;7.10;;
12800;SDS011;6464;42.494;27.470;2023-09-19T10:34:06;7.75;;;7.55;;
12800;SDS011;6464;42.494;27.470;2023-09-19T10:36:35;8.63;;;8.32;;
12800;SDS011;6464;42.494;27.470;2023-09-19T10:39:04;8.20;;;8.00;;
12800;SDS011;6464;42.494;27.470;2023-09-19T10:41:34;7.93;;;7.72;;
12800;SDS011;6464;42.494;27.470;2023-09-19T10:44:03;7.82;;;7.63;;
12800;SDS011;6464;42.494;27.470;2023-09-19T10:46:31;7.85;;;7.65;;
12800;SDS011;6464;42.494;27.470;2023-09-19T10:48:58;8.10;;;7.90;;
12800;SDS011;6464;42.494;27.470;2023-09-19T10:51:29;8.57;;;8.27;;
12800;SDS011;6464;42.494;27.470;2023-09-19T10:54:05;7.70;;;7.50;;
12800;SDS011;6464;42.494;27.470;2023-09-19T10:56:37;7.72;;;7.53;;
12800;SDS011;6464;42.494;27.470;2023-09-19T10:59:07;7.80;;;7.60;;
12800;SDS011;6464;42.494;27.470;2023-09-19T11:01:42;7.75;;;7.55;;
12800;SDS011;6464;42.494;27.470;2023-09-19T11:04:21;8.02;;;7.82;;
12800;SDS011;6464;42.494;27.470;2023-09-19T11:07:00;8.00;;;7.80;;
12800;SDS011;6464;42.494;27.470;2023-09-19T11:09:48;8.00;;;7.80;;
12800;SDS011;6464;42.494;27.470;2023-09-19T11:21:41;7.95;;;7.75;;
12800;SDS011;6464;42.494;27.470;2023-09-19T11:24:34;7.70;;;7.50;;
12800;SDS011;6464;42.494;27.470;2023-09-19T11:27:13;8.82;;;8.52;;
12800;SDS011;6464;42.494;27.470;2023-09-19T11:29:43;8.30;;;8.00;;
12800;SDS011;6464;42.494;27.470;2023-09-19T11:32:10;8.50;;;8.20;;
12800;SDS011;6464;42.494;27.470;2023-09-19T11:34:38;8.00;;;7.80;;
12800;SDS011;6464;42.494;27.470;2023-09-19T11:40:14;8.27;;;7.97;;
12800;SDS011;6464;42.494;27.470;2023-09-19T11:42:42;8.43;;;8.13;;
12800;SDS011;6464;42.494;27.470;2023-09-19T11:48:23;8.73;;;8.43;;
12800;SDS011;6464;42.494;27.470;2023-09-19T11:50:51;8.63;;;8.32;;
12800;SDS011;6464;42.494;27.470;2023-09-19T11:53:19;8.40;;;8.10;;
12800;SDS011;6464;42.494;27.470;2023-09-19T11:55:48;8.40;;;8.10;;
12800;SDS011;6464;42.494;27.470;2023-09-19T11:58:17;8.00;;;7.80;;
12800;SDS011;6464;42.494;27.470;2023-09-19T12:00:45;8.00;;;7.80;;
12800;SDS011;6464;42.494;27.470;2023-09-19T12:03:13;8.00;;;7.80;;
12800;SDS011;6464;42.494;27.470;2023-09-19T12:05:40;8.10;;;7.90;;
12800;SDS011;6464;42.494;27.470;2023-09-19T12:08:07;8.40;;;8.10;;
12800;SDS011;6464;42.494;27.470;2023-09-19T12:10:43;8.38;;;8.07;;
12800;SDS011;6464;42.494;27.470;2023-09-19T12:13:16;8.30;;;8.00;;
12800;SDS011;6464;42.494;27.470;2023-09-19T12:15:44;8.73;;;8.43;;
12800;SDS011;6464;42.494;27.470;2023-09-19T12:18:25;8.10;;;7.90;;
12800;SDS011;6464;42.494;27.470;2023-09-19T12:20:53;8.50;;;8.20;;
12800;SDS011;6464;42.494;27.470;2023-09-19T12:23:20;8.07;;;7.88;;
12800;SDS011;6464;42.494;27.470;2023-09-19T12:25:47;7.60;;;7.40;;
12800;SDS011;6464;42.494;27.470;2023-09-19T12:28:20;7.95;;;7.75;;
12800;SDS011;6464;42.494;27.470;2023-09-19T12:30:48;8.27;;;7.97;;
12800;SDS011;6464;42.494;27.470;2023-09-19T12:33:15;7.80;;;7.60;;
12800;SDS011;6464;42.494;27.470;2023-09-19T12:35:45;7.80;;;7.60;;
12800;SDS011;6464;42.494;27.470;2023-09-19T12:38:21;7.60;;;7.40;;
12800;SDS011;6464;42.494;27.470;2023-09-19T12:40:50;7.70;;;7.50;;
12800;SDS011;6464;42.494;27.470;2023-09-19T12:43:17;7.50;;;7.30;;
12800;SDS011;6464;42.494;27.470;2023-09-19T12:45:47;7.57;;;7.38;;
12800;SDS011;6464;42.494;27.470;2023-09-19T12:48:20;7.93;;;7.72;;
12800;SDS011;6464;42.494;27.470;2023-09-19T12:51:04;7.80;;;7.60;;
12800;SDS011;6464;42.494;27.470;2023-09-19T12:53:33;7.60;;;7.40;;
12800;SDS011;6464;42.494;27.470;2023-09-19T12:56:01;7.75;;;7.55;;
12800;SDS011;6464;42.494;27.470;2023-09-19T12:58:32;7.80;;;7.60;;
12800;SDS011;6464;42.494;27.470;2023-09-19T13:01:00;7.72;;;7.53;;
12800;SDS011;6464;42.494;27.470;2023-09-19T13:03:28;8.18;;;7.93;;
12800;SDS011;6464;42.494;27.470;2023-09-19T13:06:00;7.50;;;7.30;;
12800;SDS011;6464;42.494;27.470;2023-09-19T13:08:29;7.60;;;7.40;;
12800;SDS011;6464;42.494;27.470;2023-09-19T13:11:01;7.65;;;7.45;;
12800;SDS011;6464;42.494;27.470;2023-09-19T13:13:29;7.53;;;7.32;;
12800;SDS011;6464;42.494;27.470;2023-09-19T13:15:57;7.47;;;7.28;;
12800;SDS011;6464;42.494;27.470;2023-09-19T13:18:24;7.60;;;7.40;;
12800;SDS011;6464;42.494;27.470;2023-09-19T13:21:05;7.50;;;7.30;;
12800;SDS011;6464;42.494;27.470;2023-09-19T13:23:35;7.60;;;7.40;;
12800;SDS011;6464;42.494;27.470;2023-09-19T13:26:03;8.10;;;7.90;;
12800;SDS011;6464;42.494;27.470;2023-09-19T13:28:31;8.20;;;8.00;;
12800;SDS011;6464;42.494;27.470;2023-09-19T13:30:59;8.05;;;7.85;;
12800;SDS011;6464;42.494;27.470;2023-09-19T13:33:26;8.07;;;7.88;;
12800;SDS011;6464;42.494;27.470;2023-09-19T13:35:53;7.95;;;7.75;;
12800;SDS011;6464;42.494;27.470;2023-09-19T13:38:20;8.60;;;8.30;;
12800;SDS011;6464;42.494;27.470;2023-09-19T13:40:48;8.18;;;7.97;;
12800;SDS011;6464;42.494;27.470;2023-09-19T13:43:17;8.02;;;7.82;;
12800;SDS011;6464;42.494;27.470;2023-09-19T13:45:45;7.80;;;7.60;;
12800;SDS011;6464;42.494;27.470;2023-09-19T13:48:13;8.20;;;8.00;;
12800;SDS011;6464;42.494;27.470;2023-09-19T13:50:40;7.75;;;7.55;;
12800;SDS011;6464;42.494;27.470;2023-09-19T13:53:07;7.72;;;7.53;;
12800;SDS011;6464;42.494;27.470;2023-09-19T13:55:34;7.90;;;7.70;;
12800;SDS011;6464;42.494;27.470;2023-09-19T13:58:03;8.00;;;7.80;;
12800;SDS011;6464;42.494;27.470;2023-09-19T14:00:31;8.05;;;7.85;;
12800;SDS011;6464;42.494;27.470;2023-09-19T14:02:59;7.80;;;7.60;;
12800;SDS011;6464;42.494;27.470;2023-09-19T14:05:28;8.00;;;7.80;;
12800;SDS011;6464;42.494;27.470;2023-09-19T14:07:55;7.57;;;7.38;;
12800;SDS011;6464;42.494;27.470;2023-09-19T14:10:22;7.93;;;7.72;;
12800;SDS011;6464;42.494;27.470;2023-09-19T14:12:50;7.93;;;7.72;;
12800;SDS011;6464;42.494;27.470;2023-09-19T14:15:17;7.60;;;7.40;;
12800;SDS011;6464;42.494;27.470;2023-09-19T14:17:44;7.82;;;7.63;;
12800;SDS011;6464;42.494;27.470;2023-09-19T14:20:11;7.80;;;7.60;;
12800;SDS011;6464;42.494;27.470;2023-09-19T14:22:40;7.68;;;7.47;;
12800;SDS011;6464;42.494;27.470;2023-09-19T14:25:08;7.43;;;7.22;;
12800;SDS011;6464;42.494;27.470;2023-09-19T14:27:35;7.30;;;7.10;;
12800;SDS011;6464;42.494;27.470;2023-09-19T14:30:02;7.65;;;7.45;;
12800;SDS011;6464;42.494;27.470;2023-09-19T14:32:30;7.88;;;7.68;;
12800;SDS011;6464;42.494;27.470;2023-09-19T14:34:57;7.40;;;7.20;;
12800;SDS011;6464;42.494;27.470;2023-09-19T14:37:24;7.90;;;7.70;;
12800;SDS011;6464;42.494;27.470;2023-09-19T14:39:54;7.50;;;7.30;;
12800;SDS011;6464;42.494;27.470;2023-09-19T14:42:21;7.65;;;7.45;;
12800;SDS011;6464;42.494;27.470;2023-09-19T14:44:48;7.55;;;7.35;;
12800;SDS011;6464;42.494;27.470;2023-09-19T14:47:15;7.75;;;7.55;;
12800;SDS011;6464;42.494;27.470;2023-09-19T14:49:42;7.88;;;7.68;;
12800;SDS011;6464;42.494;27.470;2023-09-19T14:52:10;7.88;;;7.68;;
12800;SDS011;6464;42.494;27.470;2023-09-19T14:54:40;7.90;;;7.70;;
12800;SDS011;6464;42.494;27.470;2023-09-19T14:57:09;7.57;;;7.38;;
12800;SDS011;6464;42.494;27.470;2023-09-19T14:59:35;7.70;;;7.50;;
12800;SDS011;6464;42.494;27.470;2023-09-19T15:02:03;7.50;;;7.30;;
12800;SDS011;6464;42.494;27.470;2023-09-19T15:04:30;7.55;;;7.35;;
12800;SDS011;6464;42.494;27.470;2023-09-19T15:06:57;7.10;;;6.90;;
12800;SDS011;6464;42.494;27.470;2023-09-19T15:09:25;6.80;;;6.60;;
12800;SDS011;6464;42.494;27.470;2023-09-19T15:11:52;6.60;;;6.40;;
12800;SDS011;6464;42.494;27.470;2023-09-19T15:14:20;7.00;;;6.80;;
12800;SDS011;6464;42.494;27.470;2023-09-19T15:16:49;6.70;;;6.50;;
12800;SDS011;6464;42.494;27.470;2023-09-19T15:19:16;6.90;;;6.70;;
12800;SDS011;6464;42.494;27.470;2023-09-19T15:21:44;6.82;;;6.63;;
12800;SDS011;6464;42.494;27.470;2023-09-19T15:24:11;6.90;;;6.70;;
12800;SDS011;6464;42.494;27.470;2023-09-19T15:26:37;6.90;;;6.70;;
12800;SDS011;6464;42.494;27.470;2023-09-19T15:29:05;6.75;;;6.55;;
12800;SDS011;6464;42.494;27.470;2023-09-19T15:31:33;6.80;;;6.60;;
12800;SDS011;6464;42.494;27.470;2023-09-19T15:34:01;6.70;;;6.50;;
12800;SDS011;6464;42.494;27.470;2023-09-19T15:36:28;7.00;;;6.80;;
12800;SDS011;6464;42.494;27.470;2023-09-19T15:38:58;6.55;;;6.35;;
12800;SDS011;6464;42.494;27.470;2023-09-19T15:41:26;6.57;;;6.38;;
12800;SDS011;6464;42.494;27.470;2023-09-19T15:43:54;6.82;;;6.63;;
12800;SDS011;6464;42.494;27.470;2023-09-19T15:46:21;6.60;;;6.40;;
12800;SDS011;6464;42.494;27.470;2023-09-19T15:48:49;6.75;;;6.55;;
12800;SDS011;6464;42.494;27.470;2023-09-19T15:51:16;6.60;;;6.40;;
12800;SDS011;6464;42.494;27.470;2023-09-19T15:53:43;6.60;;;6.40;;
12800;SDS011;6464;42.494;27.470;2023-09-19T15:56:12;6.70;;;6.50;;
12800;SDS011;6464;42.494;27.470;2023-09-19T15:58:39;6.85;;;6.65;;
12800;SDS011;6464;42.494;27.470;2023-09-19T16:01:06;6.43;;;6.22;;
12800;SDS011;6464;42.494;27.470;2023-09-19T16:03:35;6.65;;;6.45;;
12800;SDS011;6464;42.494;27.470;2023-09-19T16:06:08;6.50;;;6.30;;
12800;SDS011;6464;42.494;27.470;2023-09-19T16:08:38;6.70;;;6.50;;
12800;SDS011;6464;42.494;27.470;2023-09-19T16:11:06;6.70;;;6.50;;
12800;SDS011;6464;42.494;27.470;2023-09-19T16:13:33;7.10;;;6.90;;
12800;SDS011;6464;42.494;27.470;2023-09-19T16:16:00;7.15;;;6.95;;
12800;SDS011;6464;42.494;27.470;2023-09-19T16:18:27;7.05;;;6.85;;
12800;SDS011;6464;42.494;27.470;2023-09-19T16:21:00;6.97;;;6.78;;
12800;SDS011;6464;42.494;27.470;2023-09-19T16:23:29;6.70;;;6.50;;
12800;SDS011;6464;42.494;27.470;2023-09-19T16:26:00;7.00;;;6.80;;
12800;SDS011;6464;42.494;27.470;2023-09-19T16:28:29;6.50;;;6.30;;
12800;SDS011;6464;42.494;27.470;2023-09-19T16:30:57;6.50;;;6.30;;
12800;SDS011;6464;42.494;27.470;2023-09-19T16:33:25;6.55;;;6.35;;
12800;SDS011;6464;42.494;27.470;2023-09-19T16:35:52;6.10;;;6.00;;
12800;SDS011;6464;42.494;27.470;2023-09-19T16:38:19;6.63;;;6.43;;
12800;SDS011;6464;42.494;27.470;2023-09-19T16:40:52;6.30;;;6.10;;
12800;SDS011;6464;42.494;27.470;2023-09-19T16:43:19;6.40;;;6.20;;
12800;SDS011;6464;42.494;27.470;2023-09-19T16:45:51;6.50;;;6.30;;
12800;SDS011;6464;42.494;27.470;2023-09-19T16:48:19;6.60;;;6.40;;
12800;SDS011;6464;42.494;27.470;2023-09-19T16:50:46;6.78;;;6.57;;
12800;SDS011;6464;42.494;27.470;2023-09-19T16:53:14;6.80;;;6.60;;
12800;SDS011;6464;42.494;27.470;2023-09-19T16:55:42;6.55;;;6.35;;
12800;SDS011;6464;42.494;27.470;2023-09-19T16:58:10;6.88;;;6.68;;
12800;SDS011;6464;42.494;27.470;2023-09-19T17:00:37;6.65;;;6.45;;
12800;SDS011;6464;42.494;27.470;2023-09-19T17:03:04;6.90;;;6.70;;
12800;SDS011;6464;42.494;27.470;2023-09-19T17:05:31;6.60;;;6.40;;
12800;SDS011;6464;42.494;27.470;2023-09-19T17:07:59;6.90;;;6.70;;
12800;SDS011;6464;42.494;27.470;2023-09-19T17:10:29;6.45;;;6.25;;
12800;SDS011;6464;42.494;27.470;2023-09-19T17:12:57;6.40;;;6.20;;
12800;SDS011;6464;42.494;27.470;2023-09-19T17:15:26;6.50;;;6.30;;
12800;SDS011;6464;42.494;27.470;2023-09-19T17:17:56;6.78;;;6.57;;
12800;SDS011;6464;42.494;27.470;2023-09-19T17:20:23;6.70;;;6.50;;
12800;SDS011;6464;42.494;27.470;2023-09-19T17:22:50;6.53;;;6.32;;
12800;SDS011;6464;42.494;27.470;2023-09-19T17:25:17;6.00;;;5.90;;
12800;SDS011;6464;42.494;27.470;2023-09-19T17:27:46;6.40;;;6.20;;
12800;SDS011;6464;42.494;27.470;2023-09-19T17:30:13;6.40;;;6.20;;
12800;SDS011;6464;42.494;27.470;2023-09-19T17:32:41;6.30;;;6.10;;
12800;SDS011;6464;42.494;27.470;2023-09-19T17:35:09;6.25;;;6.05;;
12800;SDS011;6464;42.494;27.470;2023-09-19T17:37:36;6.10;;;6.00;;
12800;SDS011;6464;42.494;27.470;2023-09-19T17:40:04;5.72;;;5.63;;
12800;SDS011;6464;42.494;27.470;2023-09-19T17:42:35;5.53;;;5.43;;
12800;SDS011;6464;42.494;27.470;2023-09-19T17:45:05;5.90;;;5.80;;
12800;SDS011;6464;42.494;27.470;2023-09-19T17:47:46;5.70;;;5.60;;
12800;SDS011;6464;42.494;27.470;2023-09-19T17:50:13;5.43;;;5.32;;
12800;SDS011;6464;42.494;27.470;2023-09-19T17:52:41;5.60;;;5.50;;
12800;SDS011;6464;42.494;27.470;2023-09-19T17:55:10;6.15;;;6.00;;
12800;SDS011;6464;42.494;27.470;2023-09-19T17:57:37;5.97;;;5.88;;
12800;SDS011;6464;42.494;27.470;2023-09-19T18:00:06;6.22;;;6.03;;
12800;SDS011;6464;42.494;27.470;2023-09-19T18:02:35;5.80;;;5.70;;
12800;SDS011;6464;42.494;27.470;2023-09-19T18:05:04;5.38;;;5.28;;
12800;SDS011;6464;42.494;27.470;2023-09-19T18:07:31;5.95;;;5.85;;
12800;SDS011;6464;42.494;27.470;2023-09-19T18:09:58;5.40;;;5.30;;
12800;SDS011;6464;42.494;27.470;2023-09-19T18:12:26;5.68;;;5.57;;
12800;SDS011;6464;42.494;27.470;2023-09-19T18:14:53;5.45;;;5.35;;
12800;SDS011;6464;42.494;27.470;2023-09-19T18:17:20;5.13;;;5.03;;
12800;SDS011;6464;42.494;27.470;2023-09-19T18:19:47;5.30;;;5.20;;
12800;SDS011;6464;42.494;27.470;2023-09-19T18:22:17;5.28;;;5.18;;
12800;SDS011;6464;42.494;27.470;2023-09-19T18:24:44;5.15;;;5.05;;
12800;SDS011;6464;42.494;27.470;2023-09-19T18:27:11;5.18;;;5.07;;
12800;SDS011;6464;42.494;27.470;2023-09-19T18:29:38;5.50;;;5.40;;
12800;SDS011;6464;42.494;27.470;2023-09-19T18:32:08;5.30;;;5.20;;
12800;SDS011;6464;42.494;27.470;2023-09-19T18:34:35;5.15;;;5.05;;
12800;SDS011;6464;42.494;27.470;2023-09-19T18:37:02;4.55;;;4.45;;
12800;SDS011;6464;42.494;27.470;2023-09-19T18:39:32;4.90;;;4.80;;
12800;SDS011;6464;42.494;27.470;2023-09-19T18:41:59;4.97;;;4.88;;
12800;SDS011;6464;42.494;27.470;2023-09-19T18:44:27;5.40;;;5.30;;
12800;SDS011;6464;42.494;27.470;2023-09-19T18:46:57;4.90;;;4.80;;
12800;SDS011;6464;42.494;27.470;2023-09-19T18:49:25;4.95;;;4.85;;
12800;SDS011;6464;42.494;27.470;2023-09-19T18:51:52;4.50;;;4.40;;
12800;SDS011;6464;42.494;27.470;2023-09-19T18:54:19;4.90;;;4.80;;
12800;SDS011;6464;42.494;27.470;2023-09-19T18:56:47;5.00;;;4.90;;
12800;SDS011;6464;42.494;27.470;2023-09-19T18:59:14;5.22;;;5.13;;
12800;SDS011;6464;42.494;27.470;2023-09-19T19:01:41;5.00;;;4.90;;
12800;SDS011;6464;42.494;27.470;2023-09-19T19:04:10;5.70;;;5.60;;
12800;SDS011;6464;42.494;27.470;2023-09-19T19:06:37;5.18;;;5.07;;
12800;SDS011;6464;42.494;27.470;2023-09-19T19:09:04;4.80;;;4.70;;
12800;SDS011;6464;42.494;27.470;2023-09-19T19:11:31;5.20;;;5.10;;
12800;SDS011;6464;42.494;27.470;2023-09-19T19:14:00;4.93;;;4.82;;
12800;SDS011;6464;42.494;27.470;2023-09-19T19:16:28;4.50;;;4.40;;
12800;SDS011;6464;42.494;27.470;2023-09-19T19:18:56;5.00;;;4.90;;
12800;SDS011;6464;42.494;27.470;2023-09-19T19:21:23;4.80;;;4.70;;
12800;SDS011;6464;42.494;27.470;2023-09-19T19:23:50;4.63;;;4.53;;
12800;SDS011;6464;42.494;27.470;2023-09-19T19:26:18;5.70;;;5.60;;
12800;SDS011;6464;42.494;27.470;2023-09-19T19:28:48;5.30;;;5.20;;
12800;SDS011;6464;42.494;27.470;2023-09-19T19:31:16;4.53;;;4.43;;
12800;SDS011;6464;42.494;27.470;2023-09-19T19:33:43;5.20;;;5.10;;
12800;SDS011;6464;42.494;27.470;2023-09-19T19:36:12;5.22;;;5.13;;
12800;SDS011;6464;42.494;27.470;2023-09-19T19:38:45;5.30;;;5.20;;
12800;SDS011;6464;42.494;27.470;2023-09-19T19:41:12;4.40;;;4.30;;
12800;SDS011;6464;42.494;27.470;2023-09-19T19:43:39;4.30;;;4.20;;
12800;SDS011;6464;42.494;27.470;2023-09-19T19:46:07;3.30;;;3.30;;
12800;SDS011;6464;42.494;27.470;2023-09-19T19:48:35;2.90;;;2.90;;
12800;SDS011;6464;42.494;27.470;2023-09-19T19:51:04;3.50;;;3.50;;
12800;SDS011;6464;42.494;27.470;2023-09-19T19:53:51;3.60;;;3.60;;
12800;SDS011;6464;42.494;27.470;2023-09-19T19:56:39;3.67;;;3.67;;
12800;SDS011;6464;42.494;27.470;2023-09-19T19:59:07;3.90;;;3.80;;
12800;SDS011;6464;42.494;27.470;2023-09-19T20:01:35;3.40;;;3.40;;
12800;SDS011;6464;42.494;27.470;2023-09-19T20:04:06;3.20;;;3.20;;
12800;SDS011;6464;42.494;27.470;2023-09-19T20:06:33;3.55;;;3.55;;
12800;SDS011;6464;42.494;27.470;2023-09-19T20:09:00;4.03;;;3.92;;
12800;SDS011;6464;42.494;27.470;2023-09-19T20:11:30;4.30;;;4.20;;
12800;SDS011;6464;42.494;27.470;2023-09-19T20:14:00;3.90;;;3.80;;
12800;SDS011;6464;42.494;27.470;2023-09-19T20:16:29;3.60;;;3.60;;
12800;SDS011;6464;42.494;27.470;2023-09-19T20:19:08;3.20;;;3.20;;
12800;SDS011;6464;42.494;27.470;2023-09-19T20:21:36;3.05;;;3.05;;
12800;SDS011;6464;42.494;27.470;2023-09-19T20:24:10;3.10;;;3.10;;